Time;durP1;ratioP1;P1;durP2;ratioP2;P2;SDS_P1;SDS_P2;PMS_P1;PMS_P2;Temp;Humidity;BMP_temperature;BMP_pressure;BME280_temperature;BME280_humidity;BME280_pressure;Samples;Min_cycle;Max_cycle;Signal;HPM_P1;HPM_P2
2023/05/03 00:00:00;;;;;;;0.60;0.60;;;;;;;5.87;52.19;99487.13;4973297;28;20101;-75
2023/05/03 00:02:38;;;;;;;0.60;0.60;;;;;;;5.76;52.54;99482.38;4956399;28;20113;-76
2023/05/03 00:05:11;;;;;;;;;;;;;;;5.71;52.29;99480.28;4973606;28;20488;-76
2023/05/03 00:07:43;;;;;;;0.70;0.70;;;;;;;5.67;52.87;99472.84;4955599;28;19976;-76
2023/05/03 00:10:18;;;;;;;0.60;0.60;;;;;;;5.64;53.11;99479.44;4973366;28;20050;-76
2023/05/03 00:12:46;;;;;;;0.70;0.70;;;;;;;5.67;53.10;99488.91;4992107;28;20085;-75
2023/05/03 00:15:15;;;;;;;0.60;0.60;;;;;;;5.68;52.87;99474.53;4991794;28;20099;-75
2023/05/03 00:17:42;;;;;;;0.60;0.60;;;;;;;5.68;53.01;99469.97;4991271;28;20050;-75
2023/05/03 00:20:10;;;;;;;0.60;0.60;;;;;;;5.65;53.26;99468.53;4991446;28;20160;-76
2023/05/03 00:22:37;;;;;;;0.70;0.70;;;;;;;5.72;53.08;99470.41;4991454;28;20058;-75
2023/05/03 00:25:06;;;;;;;0.60;0.60;;;;;;;5.72;53.17;99463.22;4991733;28;20162;-75
2023/05/03 00:27:33;;;;;;;0.60;0.60;;;;;;;5.71;53.38;99458.88;4990762;28;20121;-75
2023/05/03 00:30:00;;;;;;;0.60;0.60;;;;;;;5.72;53.17;99463.22;4957783;28;20447;-76
2023/05/03 00:32:31;;;;;;;0.73;0.73;;;;;;;5.74;53.33;99458.44;4974297;28;20108;-76
2023/05/03 00:34:58;;;;;;;0.70;0.70;;;;;;;5.76;52.95;99447.56;4958214;28;20042;-75
2023/05/03 00:37:26;;;;;;;0.60;0.60;;;;;;;5.75;53.15;99451.28;4973926;28;20117;-75
2023/05/03 00:39:53;;;;;;;0.70;0.70;;;;;;;5.78;53.38;99450.84;4970558;28;20071;-76
2023/05/03 00:42:22;;;;;;;0.60;0.60;;;;;;;5.77;52.99;99452.72;4971677;28;20061;-75
2023/05/03 00:44:50;;;;;;;0.60;0.60;;;;;;;5.74;53.00;99430.84;4971628;28;20055;-75
2023/05/03 00:47:18;;;;;;;0.60;0.60;;;;;;;5.76;53.38;99442.19;4965049;28;20049;-76
2023/05/03 00:49:45;;;;;;;0.70;0.70;;;;;;;5.76;53.33;99447.56;4991171;28;20050;-75
2023/05/03 00:52:13;;;;;;;0.70;0.70;;;;;;;5.74;53.29;99441.56;4991251;28;20058;-76
2023/05/03 00:54:40;;;;;;;0.65;0.65;;;;;;;5.78;53.39;99434.78;4957555;28;20046;-75
2023/05/03 00:57:29;;;;;;;0.70;0.70;;;;;;;5.77;53.37;99433.97;4960510;28;20062;-76
2023/05/03 00:59:57;;;;;;;0.68;0.68;;;;;;;5.75;53.69;99427.16;4990367;28;20105;-76
2023/05/03 01:02:26;;;;;;;0.70;0.70;;;;;;;5.74;53.62;99420.97;4990851;28;20149;-76
2023/05/03 01:04:54;;;;;;;0.73;0.73;;;;;;;5.74;53.40;99430.84;4990540;28;20052;-75
2023/05/03 01:07:36;;;;;;;0.60;0.60;;;;;;;5.78;53.60;99419.53;4973767;28;20082;-76
2023/05/03 01:10:33;;;;;;;0.80;0.80;;;;;;;5.75;53.71;99417.28;4973709;28;20047;-75
2023/05/03 01:13:09;;;;;;;0.60;0.60;;;;;;;5.75;53.88;99411.09;4991332;28;20077;-76
2023/05/03 01:15:59;;;;;;;0.70;0.70;;;;;;;5.72;53.76;99409.66;4941561;28;20081;-76
2023/05/03 01:18:32;;;;;;;0.68;0.68;;;;;;;5.68;54.00;99421.78;4973574;28;20100;-74
2023/05/03 01:21:04;;;;;;;0.70;0.70;;;;;;;5.68;53.97;99419.09;4974356;28;20077;-75
2023/05/03 01:24:07;;;;;;;0.70;0.70;;;;;;;5.64;54.28;99409.81;4990498;28;20058;-76
2023/05/03 01:26:34;;;;;;;0.70;0.70;;;;;;;5.62;54.43;99409.19;4954741;28;20527;-75
2023/05/03 01:29:01;;;;;;;0.70;0.70;;;;;;;5.65;54.29;99401.59;4972798;28;20491;-75
2023/05/03 01:31:47;;;;;;;0.60;0.60;;;;;;;5.67;54.36;99409.41;4990396;28;20547;-75
2023/05/03 01:34:40;;;;;;;0.70;0.70;;;;;;;5.65;54.26;99393.56;4973988;28;20399;-75
2023/05/03 01:37:09;;;;;;;0.70;0.70;;;;;;;5.70;54.29;99384.06;4983783;28;20116;-75
2023/05/03 01:40:08;;;;;;;0.60;0.60;;;;;;;5.70;54.22;99394.78;4953857;28;20061;-75
2023/05/03 01:42:36;;;;;;;0.70;0.70;;;;;;;5.69;54.28;99401.19;4969847;28;20488;-76
2023/05/03 01:45:04;;;;;;;0.70;0.70;;;;;;;5.70;54.34;99386.75;4990849;28;20167;-75
2023/05/03 01:47:31;;;;;;;0.60;0.60;;;;;;;5.76;54.08;99381.41;4990936;28;20047;-75
2023/05/03 01:49:58;;;;;;;0.70;0.70;;;;;;;5.80;54.11;99382.66;4972870;28;20050;-76
2023/05/03 01:52:26;;;;;;;0.60;0.60;;;;;;;5.85;53.81;99382.88;4973119;28;20109;-75
2023/05/03 01:54:53;;;;;;;0.60;0.60;;;;;;;5.88;53.89;99389.69;4990661;28;20145;-75
2023/05/03 01:57:21;;;;;;;0.70;0.70;;;;;;;5.88;53.69;99388.88;4973223;28;20060;-75
2023/05/03 01:59:48;;;;;;;0.65;0.65;;;;;;;5.92;53.74;99390.91;4973238;28;20046;-75
2023/05/03 02:02:15;;;;;;;0.63;0.63;;;;;;;5.93;53.79;99381.84;4972963;28;20101;-75
2023/05/03 02:04:46;;;;;;;0.60;0.60;;;;;;;5.94;53.71;99382.69;4990495;28;20112;-75
2023/05/03 02:07:13;;;;;;;0.70;0.70;;;;;;;5.94;53.87;99380.03;4990538;28;20051;-75
2023/05/03 02:09:40;;;;;;;0.60;0.60;;;;;;;5.96;53.70;99386.81;4972930;28;20065;-75
2023/05/03 02:12:08;;;;;;;0.70;0.70;;;;;;;5.96;53.71;99384.16;4974622;28;20058;-75
2023/05/03 02:14:38;;;;;;;0.60;0.60;;;;;;;5.98;53.86;99384.78;4976934;28;20050;-76
2023/05/03 02:17:07;;;;;;;0.68;0.68;;;;;;;6.00;53.76;99392.59;4994518;28;20133;-75
2023/05/03 02:19:34;;;;;;;0.60;0.60;;;;;;;5.99;53.95;99383.72;4994489;28;20050;-76
2023/05/03 02:22:05;;;;;;;0.60;0.60;;;;;;;5.98;53.83;99378.59;4994369;28;20046;-75
2023/05/03 02:24:35;;;;;;;0.70;0.70;;;;;;;6.03;53.82;99382.31;4994471;28;20058;-75
2023/05/03 02:27:05;;;;;;;0.60;0.60;;;;;;;6.08;53.75;99382.50;4977035;28;20053;-74
2023/05/03 02:29:33;;;;;;;0.70;0.70;;;;;;;6.09;53.72;99369.94;4960650;28;20120;-75
2023/05/03 02:32:06;;;;;;;0.70;0.70;;;;;;;6.11;53.88;99369.72;4977204;28;20070;-75
2023/05/03 02:34:38;;;;;;;0.70;0.70;;;;;;;6.19;53.48;99372.19;4975972;28;20054;-75
2023/05/03 02:37:09;;;;;;;0.60;0.60;;;;;;;6.17;53.74;99374.25;4994050;28;20046;-75
2023/05/03 02:39:40;;;;;;;0.70;0.70;;;;;;;6.21;53.59;99372.81;4975827;28;20054;-75
2023/05/03 02:42:08;;;;;;;0.70;0.70;;;;;;;6.21;53.54;99360.25;4960361;28;20070;-75
2023/05/03 02:44:38;;;;;;;0.60;0.60;;;;;;;6.24;53.62;99372.41;4993637;28;20055;-76
2023/05/03 02:47:08;;;;;;;0.70;0.70;;;;;;;6.18;53.72;99359.81;4993938;28;20054;-75
2023/05/03 02:49:38;;;;;;;0.63;0.63;;;;;;;6.16;53.82;99354.69;4960494;28;20043;-75
2023/05/03 02:52:13;;;;;;;0.70;0.70;;;;;;;6.23;53.80;99368.09;4975637;28;20601;-75
2023/05/03 02:54:42;;;;;;;0.70;0.70;;;;;;;6.25;53.66;99374.03;4992946;28;20049;-75
2023/05/03 02:57:11;;;;;;;0.63;0.63;;;;;;;6.31;53.83;99369.72;4975739;28;20141;-75
2023/05/03 02:59:40;;;;;;;0.70;0.70;;;;;;;6.36;53.88;99372.59;4975369;28;20082;-75
2023/05/03 03:02:09;;;;;;;0.60;0.60;;;;;;;6.40;53.76;99369.28;4975395;28;20406;-75
2023/05/03 03:04:37;;;;;;;0.70;0.70;;;;;;;6.49;53.48;99368.03;4975157;28;20046;-74
2023/05/03 03:07:04;;;;;;;0.60;0.60;;;;;;;6.59;53.17;99372.16;4975430;28;20042;-75
2023/05/03 03:09:32;;;;;;;0.60;0.60;;;;;;;6.69;53.10;99370.69;4975194;28;20077;-76
2023/05/03 03:12:02;;;;;;;0.70;0.70;;;;;;;6.75;52.91;99374.38;4975078;28;20424;-75
2023/05/03 03:14:31;;;;;;;0.60;0.60;;;;;;;6.79;52.65;99372.09;4941378;28;20043;-75
2023/05/03 03:17:02;;;;;;;0.60;0.60;;;;;;;6.82;52.74;99369.81;4956048;28;20139;-75
2023/05/03 03:19:29;;;;;;;0.60;0.60;;;;;;;6.83;52.89;99363.41;4939804;28;20051;-76
2023/05/03 03:22:00;;;;;;;0.60;0.60;;;;;;;6.91;52.82;99379.28;4939684;28;20058;-76
2023/05/03 03:24:29;;;;;;;0.60;0.60;;;;;;;6.97;52.47;99371.44;4955165;28;20525;-76
2023/05/03 03:26:56;;;;;;;0.60;0.60;;;;;;;7.08;52.26;99379.63;4973264;28;20497;-75
2023/05/03 03:29:24;;;;;;;0.70;0.70;;;;;;;7.15;52.09;99379.59;4947291;28;20053;-76
2023/05/03 03:31:55;;;;;;;0.70;0.70;;;;;;;7.15;51.83;99358.94;4975442;28;20145;-76
2023/05/03 03:34:22;;;;;;;0.60;0.60;;;;;;;7.27;51.81;99377.09;4991524;28;20050;-76
2023/05/03 03:36:49;;;;;;;0.60;0.60;;;;;;;7.21;51.87;99367.19;4992687;28;20053;-75
2023/05/03 03:39:17;;;;;;;0.70;0.70;;;;;;;7.32;51.54;99374.59;4956285;28;20043;-75
2023/05/03 03:41:46;;;;;;;0.70;0.70;;;;;;;7.41;51.41;99378.66;4965697;28;20046;-75
2023/05/03 03:44:13;;;;;;;0.70;0.70;;;;;;;7.42;51.38;99379.47;4946463;28;20514;-76
2023/05/03 03:46:40;;;;;;;0.60;0.60;;;;;;;7.43;51.66;99391.88;4964012;28;20632;-75
2023/05/03 03:49:07;;;;;;;0.60;0.60;;;;;;;7.35;51.10;99379.53;4990148;28;20133;-75
2023/05/03 03:51:35;;;;;;;0.60;0.60;;;;;;;7.35;51.29;99388.38;4991328;28;20054;-75
2023/05/03 03:54:03;;;;;;;0.60;0.60;;;;;;;7.33;51.61;99379.72;4975450;28;20054;-76
2023/05/03 03:56:34;;;;;;;0.60;0.60;;;;;;;7.43;51.72;99383.81;4974933;28;20051;-75
2023/05/03 03:59:04;;;;;;;0.60;0.60;;;;;;;7.47;51.62;99383.19;4992399;28;20054;-76
2023/05/03 04:01:34;;;;;;;0.60;0.60;;;;;;;7.53;51.12;99394.91;4992525;28;20161;-75
2023/05/03 04:04:03;;;;;;;0.60;0.60;;;;;;;7.44;51.66;99388.13;4974867;28;20046;-74
2023/05/03 04:06:31;;;;;;;0.60;0.60;;;;;;;7.42;52.24;99395.56;4974733;28;20101;-76
2023/05/03 04:09:03;;;;;;;0.60;0.60;;;;;;;7.45;51.74;99390.63;4975117;28;20042;-75
2023/05/03 04:11:33;;;;;;;0.50;0.50;;;;;;;7.44;52.07;99390.81;4958137;28;20047;-74
2023/05/03 04:14:09;;;;;;;0.60;0.60;;;;;;;7.51;52.09;99389.75;4974773;28;20531;-76
2023/05/03 04:16:36;;;;;;;0.60;0.60;;;;;;;7.61;52.18;99383.91;4988850;28;20052;-74
2023/05/03 04:19:05;;;;;;;0.60;0.60;;;;;;;7.68;51.84;99384.69;4971004;28;20045;-75
2023/05/03 04:21:39;;;;;;;0.60;0.60;;;;;;;7.66;51.93;99383.25;4955572;28;20042;-75
2023/05/03 04:24:06;;;;;;;0.60;0.60;;;;;;;7.68;51.93;99387.38;4971193;28;20371;-75
2023/05/03 04:26:34;;;;;;;0.50;0.50;;;;;;;7.68;52.42;99390.06;4970755;28;20055;-76
2023/05/03 04:29:18;;;;;;;0.60;0.60;;;;;;;7.63;52.51;99387.22;4961241;28;20560;-75
2023/05/03 04:31:46;;;;;;;0.60;0.60;;;;;;;7.65;52.92;99403.94;4962993;28;20138;-76
2023/05/03 04:34:17;;;;;;;0.60;0.60;;;;;;;7.55;53.97;99411.66;4961999;28;20425;-77
2023/05/03 04:36:47;;;;;;;0.60;0.60;;;;;;;7.52;54.87;99420.09;4951427;28;20046;-73
2023/05/03 04:39:15;;;;;;;0.60;0.60;;;;;;;7.47;55.44;99419.94;4944940;28;20050;-75
2023/05/03 04:41:45;;;;;;;0.60;0.60;;;;;;;7.40;55.74;99419.97;4974028;28;20057;-75
2023/05/03 04:44:13;;;;;;;0.60;0.60;;;;;;;7.29;56.32;99424.16;4991119;28;20123;-75
2023/05/03 04:46:45;;;;;;;0.50;0.50;;;;;;;7.23;56.93;99425.00;4963955;28;20089;-76
2023/05/03 04:49:16;;;;;;;0.60;0.60;;;;;;;7.16;57.67;99411.63;4982991;28;20042;-74
2023/05/03 04:51:44;;;;;;;0.57;0.57;;;;;;;7.12;57.81;99417.63;4989622;28;20116;-75
2023/05/03 04:54:11;;;;;;;0.60;0.60;;;;;;;7.00;58.99;99424.66;4989901;28;20086;-75
2023/05/03 04:56:42;;;;;;;0.60;0.60;;;;;;;6.89;60.35;99436.88;4974117;28;20042;-75
2023/05/03 04:59:14;;;;;;;0.60;0.60;;;;;;;6.85;60.25;99428.41;4972543;28;20132;-75
2023/05/03 05:01:42;;;;;;;0.65;0.65;;;;;;;6.99;60.31;99434.59;4968604;28;20085;-77
2023/05/03 05:04:10;;;;;;;0.70;0.70;;;;;;;7.11;60.20;99432.06;4980085;28;20158;-75
2023/05/03 05:06:42;;;;;;;0.60;0.60;;;;;;;7.21;60.57;99436.97;4960885;28;20129;-75
2023/05/03 05:09:22;;;;;;;0.60;0.60;;;;;;;7.38;59.69;99441.66;4994074;28;20073;-76
2023/05/03 05:11:55;;;;;;;0.60;0.60;;;;;;;7.51;59.69;99426.53;4964888;28;20054;-76
2023/05/03 05:14:33;;;;;;;0.60;0.60;;;;;;;7.71;59.71;99427.25;4965226;28;20911;-76
2023/05/03 05:17:01;;;;;;;0.60;0.60;;;;;;;7.74;59.79;99440.25;4959317;28;20418;-75
2023/05/03 05:19:30;;;;;;;0.60;0.60;;;;;;;7.75;59.04;99427.66;4961442;28;20414;-75
2023/05/03 05:21:57;;;;;;;0.60;0.60;;;;;;;7.80;59.33;99419.78;4979606;28;20074;-75
2023/05/03 05:24:37;;;;;;;0.70;0.70;;;;;;;7.94;59.20;99425.88;4962664;28;20063;-76
2023/05/03 05:27:05;;;;;;;0.70;0.70;;;;;;;8.02;58.81;99422.91;4961946;28;20117;-75
2023/05/03 05:29:33;;;;;;;0.70;0.70;;;;;;;8.17;58.48;99436.03;4957801;28;20051;-76
2023/05/03 05:32:02;;;;;;;0.70;0.70;;;;;;;8.38;57.43;99429.47;4988194;28;20048;-76
2023/05/03 05:34:31;;;;;;;0.70;0.70;;;;;;;8.41;57.27;99434.47;4966031;28;20050;-75
2023/05/03 05:37:10;;;;;;;0.60;0.60;;;;;;;8.53;57.48;99424.59;4973401;28;20072;-75
2023/05/03 05:39:39;;;;;;;0.60;0.60;;;;;;;8.73;56.67;99424.41;4970391;28;20055;-75
2023/05/03 05:42:07;;;;;;;0.60;0.60;;;;;;;8.87;56.40;99414.34;4960449;28;20469;-75
2023/05/03 05:44:34;;;;;;;0.60;0.60;;;;;;;9.04;55.98;99418.09;4969769;28;20128;-75
2023/05/03 05:47:05;;;;;;;0.60;0.60;;;;;;;9.22;54.71;99427.22;4969757;28;20050;-75
2023/05/03 05:49:35;;;;;;;0.70;0.70;;;;;;;9.22;55.08;99424.53;4957340;28;20097;-76
2023/05/03 05:52:04;;;;;;;0.60;0.60;;;;;;;9.40;54.42;99440.66;4952304;28;20504;-74
2023/05/03 05:54:31;;;;;;;0.60;0.60;;;;;;;9.37;54.54;99434.91;4988316;28;20058;-76
2023/05/03 05:57:23;;;;;;;0.60;0.60;;;;;;;9.54;54.48;99434.06;4984830;28;20073;-75
2023/05/03 05:59:50;;;;;;;0.60;0.60;;;;;;;9.78;54.17;99431.47;4967714;28;20058;-76
2023/05/03 06:02:23;;;;;;;0.60;0.60;;;;;;;9.83;52.93;99425.41;4956085;28;20113;-75
2023/05/03 06:04:51;;;;;;;0.60;0.60;;;;;;;9.81;53.87;99425.63;4966015;28;20544;-76
2023/05/03 06:07:18;;;;;;;0.60;0.60;;;;;;;9.90;52.90;99421.56;4986285;28;20132;-76
2023/05/03 06:09:45;;;;;;;0.60;0.60;;;;;;;10.07;52.63;99428.97;4988622;28;20066;-75
2023/05/03 06:12:12;;;;;;;0.60;0.60;;;;;;;10.22;51.63;99426.66;4967495;28;20940;-76
2023/05/03 06:14:42;;;;;;;0.60;0.60;;;;;;;10.31;51.82;99433.41;4971337;28;20050;-76
2023/05/03 06:17:30;;;;;;;0.50;0.50;;;;;;;10.27;51.34;99432.19;4956581;28;20046;-76
2023/05/03 06:20:04;;;;;;;0.60;0.60;;;;;;;10.39;50.71;99433.06;4967669;28;20069;-76
2023/05/03 06:22:32;;;;;;;0.60;0.60;;;;;;;10.38;50.07;99430.56;4981944;28;20137;-76
2023/05/03 06:25:00;;;;;;;0.60;0.60;;;;;;;10.45;49.84;99438.56;4959938;28;20622;-75
2023/05/03 06:27:29;;;;;;;0.50;0.50;;;;;;;10.44;49.44;99423.44;4985402;28;20624;-77
2023/05/03 06:29:57;;;;;;;0.60;0.60;;;;;;;10.52;49.94;99426.59;4966788;28;20530;-76
2023/05/03 06:32:24;;;;;;;0.60;0.60;;;;;;;10.78;48.52;99441.50;4968970;28;20169;-75
2023/05/03 06:35:02;;;;;;;0.60;0.60;;;;;;;10.88;48.32;99432.00;4965521;28;20073;-76
2023/05/03 06:40:16;;;;;;;0.55;0.55;;;;;;;10.95;48.50;99435.41;4983798;28;20050;-76
2023/05/03 06:42:43;;;;;;;0.60;0.60;;;;;;;10.98;48.79;99440.34;4986787;28;20078;-76
2023/05/03 06:45:32;;;;;;;0.60;0.60;;;;;;;11.61;47.48;99439.47;4956246;28;20061;-77
2023/05/03 06:47:59;;;;;;;0.60;0.60;;;;;;;11.79;47.15;99448.47;4968762;28;20050;-77
2023/05/03 06:50:26;;;;;;;0.70;0.70;;;;;;;11.98;46.12;99447.25;4973899;28;20042;-78
2023/05/03 06:52:53;;;;;;;0.60;0.60;;;;;;;12.12;46.43;99437.75;4964891;28;20054;-77
2023/05/03 06:55:21;;;;;;;0.60;0.60;;;;;;;12.43;46.02;99441.00;4977520;28;20077;-76
2023/05/03 06:57:48;;;;;;;0.60;0.60;;;;;;;12.19;45.85;99444.91;4960649;28;20609;-76
2023/05/03 07:00:18;;;;;;;0.60;0.60;;;;;;;12.13;46.75;99447.53;4970873;28;20051;-79
2023/05/03 07:02:45;;;;;;;0.60;0.60;;;;;;;12.07;46.70;99466.59;4961538;28;20055;-77
2023/05/03 07:05:12;;;;;;;0.60;0.60;;;;;;;11.83;46.67;99457.75;4964805;28;20146;-75
2023/05/03 07:07:51;;;;;;;0.57;0.57;;;;;;;11.54;47.21;99455.00;4965905;28;20046;-77
2023/05/03 07:10:19;;;;;;;0.50;0.50;;;;;;;11.39;48.27;99457.41;4965009;28;20121;-76
2023/05/03 07:12:46;;;;;;;0.60;0.60;;;;;;;11.42;48.36;99454.22;4968613;28;20043;-77
2023/05/03 07:15:14;;;;;;;0.60;0.60;;;;;;;11.45;48.36;99451.88;4969294;28;20054;-77
2023/05/03 07:17:42;;;;;;;0.60;0.60;;;;;;;11.67;48.15;99457.47;4951155;28;20068;-76
2023/05/03 07:20:10;;;;;;;0.60;0.60;;;;;;;11.92;47.89;99461.72;4969451;28;20058;-77
2023/05/03 07:22:37;;;;;;;0.60;0.60;;;;;;;12.28;46.81;99454.25;4967021;28;20097;-76
2023/05/03 07:25:07;;;;;;;0.60;0.60;;;;;;;12.32;46.40;99458.94;4968767;28;20073;-79
2023/05/03 07:27:35;;;;;;;0.60;0.60;;;;;;;12.11;47.26;99454.25;4963594;28;20100;-78
2023/05/03 07:30:03;;;;;;;0.50;0.50;;;;;;;12.09;47.11;99459.88;4959891;28;20051;-77
2023/05/03 07:32:31;;;;;;;0.50;0.50;;;;;;;12.12;47.18;99461.28;4950116;28;20673;-79
2023/05/03 07:34:59;;;;;;;0.50;0.50;;;;;;;12.13;46.72;99466.47;4951248;28;20043;-78
2023/05/03 07:37:30;;;;;;;0.57;0.57;;;;;;;12.09;46.93;99480.72;4956935;28;20101;-76
2023/05/03 07:39:57;;;;;;;0.50;0.50;;;;;;;12.11;47.49;99468.59;4964278;28;20043;-77
2023/05/03 07:42:33;;;;;;;0.60;0.60;;;;;;;12.14;47.31;99478.91;4970045;28;20099;-78
2023/05/03 07:45:01;;;;;;;0.60;0.60;;;;;;;12.30;46.61;99468.34;4968365;28;20051;-77
2023/05/03 07:47:31;;;;;;;0.50;0.50;;;;;;;12.38;46.83;99492.31;4967993;28;20089;-77
2023/05/03 07:50:00;;;;;;;0.60;0.60;;;;;;;12.42;46.69;99496.19;4968863;28;20043;-78
2023/05/03 07:52:29;;;;;;;0.60;0.60;;;;;;;12.55;46.57;99503.16;4600580;28;10001105;-77
2023/05/03 07:54:57;;;;;;;0.60;0.60;;;;;;;12.44;46.18;99507.59;4969999;28;20078;-78
2023/05/03 07:57:24;;;;;;;0.55;0.55;;;;;;;12.55;46.04;99503.97;4976612;28;20058;-79
2023/05/03 07:59:51;;;;;;;0.60;0.60;;;;;;;12.70;45.65;99508.00;4988385;28;20485;-78
2023/05/03 08:02:18;;;;;;;0.52;0.52;;;;;;;12.79;45.50;99506.53;4989870;28;20046;-79
2023/05/03 08:04:46;;;;;;;0.50;0.50;;;;;;;12.57;46.15;99507.25;4966076;28;20058;-78
2023/05/03 08:07:13;;;;;;;0.50;0.50;;;;;;;12.61;45.96;99504.91;4971304;28;20050;-78
2023/05/03 08:09:40;;;;;;;0.50;0.50;;;;;;;12.51;45.86;99513.66;4970320;28;20085;-78
2023/05/03 08:12:08;;;;;;;0.50;0.50;;;;;;;12.26;46.27;99518.63;4971122;28;20128;-78
2023/05/03 08:14:36;;;;;;;0.40;0.40;;;;;;;12.16;46.94;99526.56;4975752;28;20488;-77
2023/05/03 08:17:05;;;;;;;0.50;0.50;;;;;;;11.94;47.10;99529.94;4988432;28;20145;-78
2023/05/03 08:19:38;;;;;;;0.50;0.50;;;;;;;11.78;47.86;99522.56;4987763;28;20139;-78
2023/05/03 08:22:11;;;;;;;0.50;0.50;;;;;;;11.86;48.18;99543.81;4987582;28;20059;-77
2023/05/03 08:24:38;;;;;;;0.50;0.50;;;;;;;11.93;48.72;99533.72;4983362;28;20628;-76
2023/05/03 08:27:05;;;;;;;0.50;0.50;;;;;;;11.90;48.40;99547.69;4971161;28;20054;-78
2023/05/03 08:29:36;;;;;;;0.50;0.50;;;;;;;11.82;49.02;99550.75;4988163;28;20077;-77
2023/05/03 08:32:03;;;;;;;0.50;0.50;;;;;;;11.57;50.24;99556.44;4968574;28;20424;-77
2023/05/03 08:34:31;;;;;;;0.50;0.50;;;;;;;11.03;52.10;99546.59;4969739;28;20046;-77
2023/05/03 08:37:17;;;;;;;0.60;0.60;;;;;;;10.72;54.44;99545.03;4977005;28;20109;-78
2023/05/03 08:39:46;;;;;;;0.60;0.60;;;;;;;10.88;54.37;99540.84;4978896;28;20058;-77
2023/05/03 08:42:32;;;;;;;0.60;0.60;;;;;;;10.91;55.15;99528.75;4989938;28;20112;-77
2023/05/03 08:45:02;;;;;;;0.60;0.60;;;;;;;11.26;54.50;99545.78;4977804;28;20050;-76
2023/05/03 08:47:34;;;;;;;0.60;0.60;;;;;;;11.58;53.64;99531.06;4967342;28;20456;-77
2023/05/03 08:50:03;;;;;;;0.60;0.60;;;;;;;11.60;54.05;99535.19;4991416;28;20046;-77
2023/05/03 08:52:33;;;;;;;0.60;0.60;;;;;;;11.46;55.42;99525.66;4973827;28;20460;-76
2023/05/03 08:55:00;;;;;;;0.60;0.60;;;;;;;11.48;54.96;99540.59;4974540;28;20058;-76
2023/05/03 08:57:46;;;;;;;0.50;0.50;;;;;;;11.33;56.02;99544.84;4991162;28;20066;-77
2023/05/03 09:00:18;;;;;;;0.50;0.50;;;;;;;11.04;57.21;99552.84;4991722;28;20267;-76
2023/05/03 09:02:46;;;;;;;0.50;0.50;;;;;;;10.87;58.06;99560.81;4991394;28;20501;-77
2023/05/03 09:05:13;;;;;;;0.50;0.50;;;;;;;10.90;58.36;99560.31;4991431;28;20100;-76
2023/05/03 09:07:59;;;;;;;0.50;0.50;;;;;;;10.77;59.38;99552.47;4991219;28;20149;-77
2023/05/03 09:10:32;;;;;;;0.50;0.50;;;;;;;10.67;60.03;99568.41;4989808;28;20093;-77
2023/05/03 09:13:00;;;;;;;0.50;0.50;;;;;;;10.51;60.76;99562.63;4985647;28;20050;-77
2023/05/03 09:15:29;;;;;;;0.50;0.50;;;;;;;10.34;62.07;99564.31;4981087;28;20442;-76
2023/05/03 09:18:15;;;;;;;0.50;0.50;;;;;;;10.29;62.83;99566.88;4986277;28;20141;-76
2023/05/03 09:20:50;;;;;;;0.60;0.60;;;;;;;9.98;64.69;99566.81;4632750;28;10001475;-76
2023/05/03 09:23:25;;;;;;;0.50;0.50;;;;;;;9.91;65.92;99558.00;4978195;28;20077;-74
2023/05/03 09:25:53;;;;;;;0.60;0.60;;;;;;;9.81;66.41;99546.09;4946734;28;20050;-75
2023/05/03 09:28:20;;;;;;;0.50;0.50;;;;;;;9.76;66.95;99552.97;4966862;28;20513;-77
2023/05/03 09:31:03;;;;;;;0.60;0.60;;;;;;;9.85;66.81;99558.06;4986297;28;20060;-75
2023/05/03 09:33:30;;;;;;;0.50;0.50;;;;;;;9.97;67.23;99548.97;4964681;28;20054;-76
2023/05/03 09:35:59;;;;;;;0.60;0.60;;;;;;;10.24;66.80;99564.00;4980572;28;20056;-76
2023/05/03 09:38:29;;;;;;;0.60;0.60;;;;;;;10.26;65.71;99568.13;4985298;28;20081;-76
2023/05/03 09:40:56;;;;;;;0.55;0.55;;;;;;;10.14;66.33;99572.63;4983812;28;20066;-78
2023/05/03 09:43:24;;;;;;;0.60;0.60;;;;;;;9.95;67.23;99578.06;4986363;28;20048;-77
2023/05/03 09:45:52;;;;;;;0.60;0.60;;;;;;;9.96;67.53;99582.41;4981151;28;20493;-77
2023/05/03 09:48:25;;;;;;;0.60;0.60;;;;;;;10.26;66.88;99581.59;4967992;28;20077;-76
2023/05/03 09:50:52;;;;;;;0.60;0.60;;;;;;;10.33;66.54;99585.06;4982440;28;20059;-76
2023/05/03 09:53:21;;;;;;;0.60;0.60;;;;;;;10.47;66.03;99584.88;4960045;28;20055;-77
2023/05/03 09:55:49;;;;;;;0.70;0.70;;;;;;;10.78;65.27;99581.09;4943050;28;20134;-76
2023/05/03 09:58:20;;;;;;;0.70;0.70;;;;;;;11.28;63.61;99576.09;4971176;28;20055;-76
2023/05/03 10:00:49;;;;;;;0.90;0.90;;;;;;;12.52;60.43;99576.75;4950657;28;20057;-77
2023/05/03 10:03:49;;;;;;;0.70;0.70;;;;;;;12.48;59.16;99581.00;4967820;28;20128;-77
2023/05/03 10:06:36;;;;;;;0.60;0.60;;;;;;;12.01;60.26;99582.00;4976645;28;20054;-79
2023/05/03 10:09:04;;;;;;;0.70;0.70;;;;;;;11.71;61.49;99585.69;4957748;28;20058;-78
2023/05/03 10:11:35;;;;;;;0.60;0.60;;;;;;;11.84;61.14;99578.38;4984532;28;20133;-76
2023/05/03 10:14:04;;;;;;;0.65;0.65;;;;;;;11.89;60.67;99587.44;4990369;28;20112;-76
2023/05/03 10:16:38;;;;;;;0.60;0.60;;;;;;;11.87;61.35;99586.03;4978657;28;20449;-78
2023/05/03 10:19:13;;;;;;;0.60;0.60;;;;;;;11.87;60.96;99577.91;4960650;28;20478;-77
2023/05/03 10:21:50;;;;;;;0.70;0.70;;;;;;;11.87;60.87;99586.84;4930146;28;20050;-77
2023/05/03 10:24:17;;;;;;;0.60;0.60;;;;;;;11.90;60.53;99581.00;4970772;28;20050;-78
2023/05/03 10:26:46;;;;;;;0.70;0.70;;;;;;;11.80;60.80;99572.63;4985943;28;20060;-77
2023/05/03 10:29:33;;;;;;;0.60;0.60;;;;;;;12.15;61.05;99574.44;4990509;28;20112;-77
2023/05/03 10:32:31;;;;;;;0.60;0.60;;;;;;;12.25;59.46;99571.09;4989008;28;20101;-78
2023/05/03 10:35:02;;;;;;;0.60;0.60;;;;;;;12.13;59.56;99565.75;4982528;28;20125;-77
2023/05/03 10:37:34;;;;;;;0.60;0.60;;;;;;;11.95;60.03;99576.72;4991396;28;20053;-78
2023/05/03 10:40:08;;;;;;;0.60;0.60;;;;;;;11.89;60.68;99575.81;4993761;28;20061;-78
2023/05/03 10:42:43;;;;;;;0.60;0.60;;;;;;;12.11;60.70;99578.69;4993030;28;20429;-77
2023/05/03 10:45:25;;;;;;;0.60;0.60;;;;;;;12.40;59.22;99581.41;4992065;28;20145;-77
2023/05/03 10:48:11;;;;;;;0.60;0.60;;;;;;;12.65;57.50;99581.03;4963649;28;20066;-78
2023/05/03 10:50:39;;;;;;;0.60;0.60;;;;;;;12.46;57.43;99581.25;4970755;28;20080;-78
2023/05/03 10:53:07;;;;;;;0.60;0.60;;;;;;;12.49;57.89;99574.53;4975576;28;20054;-77
2023/05/03 10:55:34;;;;;;;0.60;0.60;;;;;;;12.67;57.73;99581.63;4993846;28;20137;-78
2023/05/03 10:58:02;;;;;;;0.60;0.60;;;;;;;13.12;56.29;99580.75;4991346;28;20062;-77
2023/05/03 11:00:32;;;;;;;0.65;0.65;;;;;;;13.33;55.34;99582.72;4987609;28;20054;-78
2023/05/03 11:03:17;;;;;;;0.80;0.80;;;;;;;13.88;53.96;99587.28;4992811;28;20145;-77
2023/05/03 11:05:46;;;;;;;1.10;1.10;;;;;;;15.50;50.36;99563.00;4981628;28;20533;-77
2023/05/03 11:08:17;;;;;;;1.10;1.10;;;;;;;17.30;45.42;99573.25;4989472;28;20450;-78
2023/05/03 11:10:49;;;;;;;1.00;1.00;;;;;;;17.66;44.12;99568.53;4993302;28;20054;-78
2023/05/03 11:13:17;;;;;;;0.90;0.90;;;;;;;18.61;41.80;99559.38;4993139;28;20537;-77
2023/05/03 11:15:44;;;;;;;1.00;1.00;;;;;;;18.49;42.78;99572.56;4993103;28;20181;-77
2023/05/03 11:18:15;;;;;;;0.90;0.90;;;;;;;18.99;41.30;99564.28;4976591;28;20478;-77
2023/05/03 11:20:42;;;;;;;0.50;0.50;;;;;;;17.38;42.03;99563.69;4957926;28;20460;-76
2023/05/03 11:23:11;;;;;;;0.80;0.80;;;;;;;16.20;44.68;99590.81;4987974;28;20122;-77
2023/05/03 11:25:44;;;;;;;1.00;1.00;;;;;;;16.69;43.61;99563.97;4991157;28;20061;-76
2023/05/03 11:28:15;;;;;;;1.05;1.05;;;;;;;17.61;41.80;99563.09;4992011;28;20078;-77
2023/05/03 11:30:42;;;;;;;0.70;0.70;;;;;;;18.57;39.52;99552.81;4984917;28;20051;-77
2023/05/03 11:33:09;;;;;;;0.52;0.52;;;;;;;16.94;41.49;99551.47;4979671;28;20059;-77
2023/05/03 11:35:37;;;;;;;0.90;0.90;;;;;;;16.62;42.74;99555.22;4956395;28;20057;-77
2023/05/03 11:38:04;;;;;;;0.60;0.60;;;;;;;16.37;43.73;99577.00;4978878;28;20502;-77
2023/05/03 11:40:31;;;;;;;0.60;0.60;;;;;;;15.65;44.92;99573.13;4965157;28;20054;-78
2023/05/03 11:42:59;;;;;;;0.70;0.70;;;;;;;15.85;44.21;99551.50;4982006;28;20057;-77
2023/05/03 11:45:31;;;;;;;0.70;0.70;;;;;;;15.68;45.13;99531.81;4974149;28;20060;-78
2023/05/03 11:47:58;;;;;;;0.50;0.50;;;;;;;15.63;44.53;99548.09;4982698;28;20564;-77
2023/05/03 11:50:42;;;;;;;1.00;1.00;;;;;;;16.39;43.42;99537.50;4991675;28;20133;-79
2023/05/03 11:53:11;;;;;;;1.00;1.00;;;;;;;18.18;40.30;99545.41;4992393;28;20517;-76
2023/05/03 11:55:45;;;;;;;1.00;1.00;;;;;;;18.54;38.98;99534.25;4956006;28;20047;-78
2023/05/03 11:58:26;;;;;;;0.80;0.80;;;;;;;18.72;38.29;99570.22;4973142;28;20146;-78